Time,TemperatureF,DewpointF,PressureIn,WindDirection,WindDirectionDegrees,WindSpeedMPH,WindSpeedGustMPH,Humidity,HourlyPrecipIn,Conditions,Clouds,dailyrainin,SoftwareType,DateUTC
2013-03-28 00:05:00,27.2,21.0,30.32,NW,311,0.0,0.0,76,0.00,,,0.00,weatherlink.com 1.10,2013-03-28 05:05:00,
2013-03-28 00:20:00,27.2,20.0,30.32,NW,311,0.0,0.0,75,0.00,,,0.00,weatherlink.com 1.10,2013-03-28 05:20:00,
2013-03-28 00:35:00,27.0,20.0,30.33,NW,311,0.0,0.0,76,0.00,,,0.00,weatherlink.com 1.10,2013-03-28 05:35:00,
2013-03-28 00:50:00,26.8,20.0,30.33,NW,311,0.0,0.0,76,0.00,,,0.00,weatherlink.com 1.10,2013-03-28 05:50:00,
2013-03-28 01:05:00,26.8,20.0,30.33,NW,311,0.0,0.0,76,0.00,,,0.00,weatherlink.com 1.10,2013-03-28 06:05:00,
2013-03-28 01:20:00,26.7,20.0,30.33,NW,311,0.0,0.0,76,0.00,,,0.00,weatherlink.com 1.10,2013-03-28 06:20:00,
2013-03-28 01:35:00,26.3,20.0,30.34,NW,311,0.0,0.0,78,0.00,,,0.00,weatherlink.com 1.10,2013-03-28 06:35:00,
2013-03-28 01:50:00,26.3,20.0,30.34,NW,311,0.0,0.0,77,0.00,,,0.00,weatherlink.com 1.10,2013-03-28 06:50:00,
2013-03-28 02:05:00,26.0,20.0,30.34,NW,311,0.0,0.0,77,0.00,,,0.00,weatherlink.com 1.10,2013-03-28 07:05:00,
2013-03-28 02:20:00,25.8,20.0,30.33,NW,311,0.0,0.0,78,0.00,,,0.00,weatherlink.com 1.10,2013-03-28 07:20:00,
2013-03-28 02:35:00,25.9,20.0,30.33,NW,311,0.0,0.0,78,0.00,,,0.00,weatherlink.com 1.10,2013-03-28 07:35:00,
2013-03-28 02:50:00,25.8,20.0,30.33,NW,311,0.0,1.0,78,0.00,,,0.00,weatherlink.com 1.10,2013-03-28 07:50:00,
2013-03-28 03:05:00,25.9,20.0,30.33,NW,311,0.0,0.0,78,0.00,,,0.00,weatherlink.com 1.10,2013-03-28 08:05:00,
2013-03-28 03:20:00,25.9,20.0,30.33,NW,311,0.0,1.0,78,0.00,,,0.00,weatherlink.com 1.10,2013-03-28 08:20:00,
2013-03-28 03:35:00,25.7,20.0,30.33,NW,311,0.0,0.0,78,0.00,,,0.00,weatherlink.com 1.10,2013-03-28 08:35:00,
2013-03-28 03:50:00,25.4,20.0,30.33,NW,311,0.0,1.0,79,0.00,,,0.00,weatherlink.com 1.10,2013-03-28 08:50:00,
2013-03-28 04:05:00,25.4,20.0,30.33,NW,311,0.0,0.0,79,0.00,,,0.00,weatherlink.com 1.10,2013-03-28 09:05:00,
2013-03-28 04:20:00,25.3,20.0,30.33,NW,311,0.0,0.0,79,0.00,,,0.00,weatherlink.com 1.10,2013-03-28 09:20:00,
2013-03-28 04:35:00,25.4,20.0,30.33,NW,311,0.0,1.0,79,0.00,,,0.00,weatherlink.com 1.10,2013-03-28 09:35:00,
2013-03-28 04:50:00,25.5,20.0,30.33,NW,311,0.0,1.0,79,0.00,,,0.00,weatherlink.com 1.10,2013-03-28 09:50:00,
2013-03-28 05:05:00,25.4,20.0,30.33,NW,311,0.0,1.0,79,0.00,,,0.00,weatherlink.com 1.10,2013-03-28 10:05:00,
2013-03-28 05:20:00,25.2,20.0,30.34,NW,311,0.0,0.0,79,0.00,,,0.00,weatherlink.com 1.10,2013-03-28 10:20:00,
2013-03-28 05:35:00,24.9,20.0,30.34,NW,311,0.0,0.0,80,0.00,,,0.00,weatherlink.com 1.10,2013-03-28 10:35:00,
2013-03-28 05:50:00,24.5,19.0,30.34,NW,311,0.0,0.0,80,0.00,,,0.00,weatherlink.com 1.10,2013-03-28 10:50:00,
2013-03-28 06:05:00,24.3,19.0,30.34,NW,311,0.0,0.0,81,0.00,,,0.00,weatherlink.com 1.10,2013-03-28 11:05:00,
2013-03-28 06:21:00,24.0,19.0,30.34,NW,311,0.0,1.0,82,0.00,,,0.00,weatherlink.com 1.10,2013-03-28 11:21:00,
2013-03-28 06:36:00,23.9,19.0,30.34,NW,311,0.0,1.0,82,0.00,,,0.00,weatherlink.com 1.10,2013-03-28 11:36:00,
2013-03-28 06:51:00,23.7,19.0,30.35,NW,311,0.0,0.0,82,0.00,,,0.00,weatherlink.com 1.10,2013-03-28 11:51:00,
2013-03-28 07:06:00,23.6,19.0,30.35,NW,311,0.0,1.0,83,0.00,,,0.00,weatherlink.com 1.10,2013-03-28 12:06:00,
2013-03-28 07:21:00,24.2,19.0,30.35,NW,311,0.0,1.0,82,0.00,,,0.00,weatherlink.com 1.10,2013-03-28 12:21:00,
2013-03-28 07:36:00,25.7,20.0,30.36,NW,311,0.0,2.0,80,0.00,,,0.00,weatherlink.com 1.10,2013-03-28 12:36:00,
2013-03-28 07:51:00,27.0,21.0,30.36,NNW,336,0.0,1.0,77,0.00,,,0.00,weatherlink.com 1.10,2013-03-28 12:51:00,
2013-03-28 08:06:00,28.5,21.0,30.36,NW,312,0.0,3.0,74,0.00,,,0.00,weatherlink.com 1.10,2013-03-28 13:06:00,
2013-03-28 08:21:00,30.0,22.0,30.36,NW,313,0.0,2.0,72,0.00,,,0.00,weatherlink.com 1.10,2013-03-28 13:21:00,
2013-03-28 08:51:00,34.7,24.0,30.36,NW,311,0.0,2.0,64,0.00,,,0.00,weatherlink.com 1.10,2013-03-28 13:51:00,
2013-03-28 09:21:00,36.2,23.0,30.37,NW,321,0.0,2.0,60,0.00,,,0.00,weatherlink.com 1.10,2013-03-28 14:21:00,
2013-03-28 09:36:00,37.2,24.0,30.37,North,360,0.0,3.0,59,0.00,,,0.00,weatherlink.com 1.10,2013-03-28 14:36:00,
2013-03-28 09:51:00,38.4,25.0,30.37,North,349,0.0,2.0,58,0.00,,,0.00,weatherlink.com 1.10,2013-03-28 14:51:00,
2013-03-28 10:21:00,40.8,25.0,30.36,NNW,336,0.0,3.0,54,0.00,,,0.00,weatherlink.com 1.10,2013-03-28 15:21:00,
2013-03-28 10:36:00,41.4,24.0,30.37,NNW,329,0.0,3.0,51,0.00,,,0.00,weatherlink.com 1.10,2013-03-28 15:36:00,
2013-03-28 10:51:00,42.2,24.0,30.37,NNW,328,0.0,3.0,48,0.00,,,0.00,weatherlink.com 1.10,2013-03-28 15:51:00,
2013-03-28 11:07:00,43.5,24.0,30.37,NW,305,2.0,4.0,47,0.00,,,0.00,weatherlink.com 1.10,2013-03-28 16:07:00,
2013-03-28 11:21:00,43.7,24.0,30.37,West,261,1.0,3.0,46,0.00,,,0.00,weatherlink.com 1.10,2013-03-28 16:21:00,
2013-03-28 11:36:00,44.5,24.0,30.37,NW,314,0.0,3.0,44,0.00,,,0.00,weatherlink.com 1.10,2013-03-28 16:36:00,
2013-03-28 11:51:00,44.5,23.0,30.37,NNW,327,1.0,5.0,43,0.00,,,0.00,weatherlink.com 1.10,2013-03-28 16:51:00,
2013-03-28 12:06:00,44.7,23.0,30.37,NW,319,1.0,3.0,43,0.00,,,0.00,weatherlink.com 1.10,2013-03-28 17:06:00,
2013-03-28 12:22:00,44.7,22.0,30.36,West,280,0.0,4.0,41,0.00,,,0.00,weatherlink.com 1.10,2013-03-28 17:22:00,
2013-03-28 12:52:00,44.4,22.0,30.36,NNW,338,0.0,5.0,42,0.00,,,0.00,weatherlink.com 1.10,2013-03-28 17:52:00,
2013-03-28 13:07:00,45.3,23.0,30.36,WNW,293,0.0,4.0,42,0.00,,,0.00,weatherlink.com 1.10,2013-03-28 18:07:00,
2013-03-28 13:22:00,44.1,22.0,30.36,WNW,301,5.0,7.0,41,0.00,,,0.00,weatherlink.com 1.10,2013-03-28 18:22:00,
2013-03-28 13:37:00,45.0,22.0,30.36,SW,225,3.0,4.0,41,0.00,,,0.00,weatherlink.com 1.10,2013-03-28 18:37:00,
2013-03-28 13:52:00,45.8,22.0,30.35,NW,319,3.0,4.0,39,0.00,,,0.00,weatherlink.com 1.10,2013-03-28 18:52:00,
2013-03-28 14:07:00,45.9,21.0,30.35,SW,221,1.0,5.0,38,0.00,,,0.00,weatherlink.com 1.10,2013-03-28 19:07:00,
2013-03-28 14:22:00,46.2,20.0,30.34,SW,229,1.0,5.0,36,0.00,,,0.00,weatherlink.com 1.10,2013-03-28 19:22:00,
2013-03-28 14:37:00,46.2,20.0,30.34,WSW,244,5.0,6.0,36,0.00,,,0.00,weatherlink.com 1.10,2013-03-28 19:37:00,
2013-03-28 14:52:00,45.6,21.0,30.34,West,266,0.0,5.0,38,0.00,,,0.00,weatherlink.com 1.10,2013-03-28 19:52:00,
2013-03-28 15:07:00,45.1,21.0,30.34,SSW,212,1.0,9.0,39,0.00,,,0.00,weatherlink.com 1.10,2013-03-28 20:07:00,
2013-03-28 15:22:00,44.4,22.0,30.33,WNW,298,1.0,7.0,41,0.00,,,0.00,weatherlink.com 1.10,2013-03-28 20:22:00,
2013-03-28 15:37:00,44.0,20.0,30.33,West,261,3.0,6.0,39,0.00,,,0.00,weatherlink.com 1.10,2013-03-28 20:37:00,
2013-03-28 15:52:00,43.9,21.0,30.33,West,277,0.0,6.0,40,0.00,,,0.00,weatherlink.com 1.10,2013-03-28 20:52:00,
2013-03-28 16:07:00,44.1,20.0,30.33,NW,309,0.0,7.0,39,0.00,,,0.00,weatherlink.com 1.10,2013-03-28 21:07:00,
2013-03-28 16:22:00,43.3,20.0,30.32,NNW,334,3.0,6.0,39,0.00,,,0.00,weatherlink.com 1.10,2013-03-28 21:22:00,
2013-03-28 16:37:00,43.4,20.0,30.32,West,275,0.0,5.0,39,0.00,,,0.00,weatherlink.com 1.10,2013-03-28 21:37:00,
2013-03-28 16:52:00,44.0,22.0,30.32,WNW,296,1.0,4.0,41,0.00,,,0.00,weatherlink.com 1.10,2013-03-28 21:52:00,
2013-03-28 17:07:00,43.8,21.0,30.32,NW,314,1.0,4.0,40,0.00,,,0.00,weatherlink.com 1.10,2013-03-28 22:07:00,
2013-03-28 17:22:00,43.1,21.0,30.32,NW,320,0.0,5.0,41,0.00,,,0.00,weatherlink.com 1.10,2013-03-28 22:22:00,
2013-03-28 17:37:00,41.6,19.0,30.32,NNW,348,0.0,6.0,41,0.00,,,0.00,weatherlink.com 1.10,2013-03-28 22:37:00,
2013-03-28 17:53:00,41.3,19.0,30.32,NW,316,0.0,3.0,41,0.00,,,0.00,weatherlink.com 1.10,2013-03-28 22:53:00,
2013-03-28 18:07:00,41.1,19.0,30.32,NNW,338,0.0,5.0,42,0.00,,,0.00,weatherlink.com 1.10,2013-03-28 23:07:00,
2013-03-28 18:22:00,40.7,20.0,30.32,NNW,347,0.0,2.0,43,0.00,,,0.00,weatherlink.com 1.10,2013-03-28 23:22:00,
2013-03-28 18:37:00,40.4,19.0,30.32,NNW,328,2.0,3.0,43,0.00,,,0.00,weatherlink.com 1.10,2013-03-28 23:37:00,
2013-03-28 18:52:00,40.0,20.0,30.33,NNW,328,0.0,1.0,45,0.00,,,0.00,weatherlink.com 1.10,2013-03-28 23:52:00,
2013-03-28 19:07:00,39.5,20.0,30.33,NNW,328,0.0,0.0,45,0.00,,,0.00,weatherlink.com 1.10,2013-03-29 00:07:00,
2013-03-28 19:22:00,38.8,20.0,30.33,NNW,328,0.0,0.0,47,0.00,,,0.00,weatherlink.com 1.10,2013-03-29 00:22:00,
2013-03-28 19:37:00,37.8,20.0,30.33,NNW,328,0.0,0.0,49,0.00,,,0.00,weatherlink.com 1.10,2013-03-29 00:37:00,
2013-03-28 19:52:00,36.6,20.0,30.33,NNW,328,0.0,0.0,51,0.00,,,0.00,weatherlink.com 1.10,2013-03-29 00:52:00,
2013-03-28 20:07:00,35.5,19.0,30.33,NNW,328,0.0,0.0,52,0.00,,,0.00,weatherlink.com 1.10,2013-03-29 01:07:00,
2013-03-28 20:37:00,33.7,19.0,30.33,NNW,328,0.0,0.0,56,0.00,,,0.00,weatherlink.com 1.10,2013-03-29 01:37:00,
2013-03-28 20:52:00,32.9,19.0,30.34,NNW,328,0.0,0.0,57,0.00,,,0.00,weatherlink.com 1.10,2013-03-29 01:52:00,
2013-03-28 21:07:00,32.0,21.0,30.34,NNW,328,0.0,0.0,64,0.00,,,0.00,weatherlink.com 1.10,2013-03-29 02:07:00,
2013-03-28 21:22:00,30.9,20.0,30.34,NNW,328,0.0,0.0,65,0.00,,,0.00,weatherlink.com 1.10,2013-03-29 02:22:00,
2013-03-28 21:37:00,30.4,19.0,30.34,NNW,328,0.0,0.0,63,0.00,,,0.00,weatherlink.com 1.10,2013-03-29 02:37:00,
2013-03-28 21:52:00,30.1,20.0,30.34,NNW,328,0.0,0.0,65,0.00,,,0.00,weatherlink.com 1.10,2013-03-29 02:52:00,
2013-03-28 22:07:00,30.1,19.0,30.34,NNW,328,0.0,0.0,64,0.00,,,0.00,weatherlink.com 1.10,2013-03-29 03:07:00,
2013-03-28 22:22:00,30.1,21.0,30.34,NNW,328,0.0,1.0,69,0.00,,,0.00,weatherlink.com 1.10,2013-03-29 03:22:00,
2013-03-28 22:37:00,29.1,21.0,30.34,NNW,328,0.0,0.0,72,0.00,,,0.00,weatherlink.com 1.10,2013-03-29 03:37:00,
2013-03-28 22:52:00,28.5,21.0,30.34,NNW,328,0.0,0.0,72,0.00,,,0.00,weatherlink.com 1.10,2013-03-29 03:52:00,
2013-03-28 23:07:00,28.4,20.0,30.34,NNW,328,0.0,0.0,70,0.00,,,0.00,weatherlink.com 1.10,2013-03-29 04:07:00,
2013-03-28 23:22:00,28.4,19.0,30.33,NNW,328,0.0,0.0,69,0.00,,,0.00,weatherlink.com 1.10,2013-03-29 04:22:00,
2013-03-28 23:37:00,28.3,19.0,30.33,NNW,328,0.0,0.0,69,0.00,,,0.00,weatherlink.com 1.10,2013-03-29 04:37:00,
2013-03-28 23:52:00,28.2,19.0,30.33,NNW,328,0.0,0.0,69,0.00,,,0.00,weatherlink.com 1.10,2013-03-29 04:52:00,